createdAt,value
2022-08-07T00:00:24.772Z,4.95
2022-08-07T00:02:51.175Z,4.72
2022-08-07T00:05:20.503Z,4.95
2022-08-07T00:07:46.987Z,5.20
2022-08-07T00:10:26.184Z,4.05
2022-08-07T00:13:00.209Z,3.88
2022-08-07T00:15:36.023Z,4.47
2022-08-07T00:18:05.428Z,3.67
2022-08-07T00:20:35.355Z,4.30
2022-08-07T00:23:02.499Z,4.25
2022-08-07T00:25:28.943Z,3.53
2022-08-07T00:28:07.598Z,4.28
2022-08-07T00:30:34.006Z,3.83
2022-08-07T00:33:02.238Z,4.18
2022-08-07T00:35:30.006Z,4.55
2022-08-07T00:37:57.902Z,4.78
2022-08-07T00:40:36.674Z,3.75
2022-08-07T00:43:10.004Z,4.05
2022-08-07T00:45:38.856Z,3.30
2022-08-07T00:48:10.277Z,3.67
2022-08-07T00:50:50.279Z,5.10
2022-08-07T00:53:20.075Z,4.10
2022-08-07T00:56:00.463Z,4.63
2022-08-07T00:58:28.477Z,5.13
2022-08-07T01:00:54.902Z,4.18
2022-08-07T01:03:25.443Z,3.35
2022-08-07T01:06:08.406Z,4.05
2022-08-07T01:08:34.921Z,4.82
2022-08-07T01:12:04.821Z,4.75
2022-08-07T01:13:55.532Z,4.25
2022-08-07T01:16:30.379Z,3.10
2022-08-07T01:18:57.972Z,4.22
2022-08-07T01:21:26.225Z,3.92
2022-08-07T01:23:55.247Z,3.88
2022-08-07T01:26:22.673Z,2.97
2022-08-07T01:28:53.859Z,2.92
2022-08-07T01:31:21.339Z,5.10
2022-08-07T01:33:55.472Z,3.90
2022-08-07T01:36:33.808Z,3.45
2022-08-07T01:39:09.882Z,3.50
2022-08-07T01:41:39.001Z,3.67
2022-08-07T01:44:07.464Z,4.10
2022-08-07T01:46:34.460Z,2.90
2022-08-07T01:49:02.224Z,6.53
2022-08-07T01:52:03.815Z,4.35
2022-08-07T01:54:33.387Z,3.72
2022-08-07T01:57:20.482Z,3.25
2022-08-07T02:00:12.849Z,3.60
2022-08-07T02:03:18.939Z,3.42
2022-08-07T02:06:01.004Z,2.95
2022-08-07T02:08:29.763Z,3.10
2022-08-07T02:10:59.283Z,3.83
2022-08-07T02:13:58.193Z,2.83
2022-08-07T02:16:14.610Z,3.70
2022-08-07T02:18:46.823Z,3.03
2022-08-07T02:21:16.072Z,4.22
2022-08-07T02:23:43.764Z,4.00
2022-08-07T02:26:32.463Z,3.53
2022-08-07T02:28:58.397Z,4.88
2022-08-07T02:31:28.418Z,3.33
2022-08-07T02:34:03.446Z,4.75
2022-08-07T02:36:32.735Z,4.00
2022-08-07T02:39:01.098Z,3.90
2022-08-07T02:41:33.446Z,3.65
2022-08-07T02:44:05.033Z,4.10
2022-08-07T02:46:34.072Z,3.92
2022-08-07T02:49:04.525Z,4.53
2022-08-07T02:51:42.390Z,4.38
2022-08-07T02:54:17.962Z,4.68
2022-08-07T02:56:46.581Z,6.22
2022-08-07T02:59:16.329Z,4.05
2022-08-07T03:01:42.991Z,5.35
2022-08-07T03:04:14.491Z,3.28
2022-08-07T03:06:46.144Z,3.63
2022-08-07T03:09:41.843Z,4.82
2022-08-07T03:12:05.357Z,5.57
2022-08-07T03:14:36.088Z,4.70
2022-08-07T03:17:04.548Z,3.95
2022-08-07T03:19:36.950Z,4.70
2022-08-07T03:22:05.503Z,5.25
2022-08-07T03:24:32.000Z,4.32
2022-08-07T03:27:01.280Z,4.13
2022-08-07T03:29:37.765Z,3.78
2022-08-07T03:32:08.301Z,3.90
2022-08-07T03:34:39.233Z,3.72
2022-08-07T03:37:11.916Z,4.95
2022-08-07T03:39:46.249Z,4.38
2022-08-07T03:42:26.112Z,4.15
2022-08-07T03:44:57.808Z,3.42
2022-08-07T03:47:25.207Z,3.83
2022-08-07T03:49:55.968Z,4.32
2022-08-07T03:52:27.028Z,4.47
2022-08-07T03:54:57.317Z,4.18
2022-08-07T03:59:07.202Z,4.18
2022-08-07T04:00:21.097Z,4.65
2022-08-07T04:02:56.702Z,3.58
2022-08-07T04:05:24.007Z,4.18
2022-08-07T04:07:56.006Z,3.28
2022-08-07T04:10:22.565Z,4.10
2022-08-07T04:12:51.134Z,4.47
2022-08-07T04:15:18.239Z,3.60
2022-08-07T04:18:59.891Z,4.22
2022-08-07T04:20:31.881Z,3.83
2022-08-07T04:23:02.228Z,5.50
2022-08-07T04:25:36.026Z,4.53
2022-08-07T04:28:08.105Z,4.00
2022-08-07T04:30:39.569Z,4.60
2022-08-07T04:33:14.066Z,3.33
2022-08-07T04:35:44.606Z,6.88
2022-08-07T04:38:17.079Z,3.63
2022-08-07T04:40:52.816Z,4.72
2022-08-07T04:44:11.862Z,6.57
2022-08-07T04:46:34.893Z,3.63
2022-08-07T04:49:24.239Z,4.22
2022-08-07T04:52:14.769Z,4.40
2022-08-07T04:54:52.727Z,3.50
2022-08-07T04:58:13.074Z,4.45
2022-08-07T05:00:40.957Z,3.53
2022-08-07T05:03:17.265Z,3.95
2022-08-07T05:06:00.463Z,4.18
2022-08-07T05:08:59.870Z,3.47
2022-08-07T05:11:28.020Z,3.08
2022-08-07T05:14:52.508Z,4.30
2022-08-07T05:17:50.320Z,4.68
2022-08-07T05:20:10.038Z,3.92
2022-08-07T05:22:38.265Z,5.68
2022-08-07T05:25:08.745Z,3.67
2022-08-07T05:28:02.514Z,4.85
2022-08-07T05:30:30.146Z,4.13
2022-08-07T05:32:59.754Z,4.47
2022-08-07T05:38:09.826Z,4.20
2022-08-07T05:40:37.234Z,4.15
2022-08-07T05:43:17.768Z,4.30
2022-08-07T05:45:47.880Z,6.15
2022-08-07T05:48:15.271Z,5.93
2022-08-07T05:50:43.341Z,5.47
2022-08-07T05:54:12.423Z,5.22
2022-08-07T05:56:03.815Z,8.05
2022-08-07T05:58:36.778Z,5.43
2022-08-07T06:01:05.976Z,4.97
2022-08-07T06:03:56.528Z,8.20
2022-08-07T06:06:23.920Z,5.30
2022-08-07T06:08:57.092Z,5.70
2022-08-07T06:11:25.115Z,5.57
2022-08-07T06:14:12.077Z,6.72
2022-08-07T06:16:40.012Z,7.05
2022-08-07T06:19:07.076Z,7.15
2022-08-07T06:22:14.570Z,7.65
2022-08-07T06:24:45.437Z,7.53
2022-08-07T06:27:09.075Z,5.28
2022-08-07T06:29:38.907Z,8.80
2022-08-07T06:32:05.727Z,6.22
2022-08-07T06:34:32.171Z,6.18
2022-08-07T06:36:59.703Z,5.80
2022-08-07T06:40:18.023Z,6.43
2022-08-07T06:42:19.084Z,5.60
2022-08-07T06:44:50.980Z,7.22
2022-08-07T06:47:18.504Z,6.07
2022-08-07T06:49:51.110Z,7.80
2022-08-07T06:52:31.778Z,5.95
2022-08-07T06:55:33.578Z,5.30
2022-08-07T06:57:56.843Z,5.63
2022-08-07T07:00:24.158Z,5.53
2022-08-07T07:02:54.249Z,4.13
2022-08-07T07:06:05.436Z,4.28
2022-08-07T07:08:18.911Z,5.97
2022-08-07T07:10:56.780Z,5.00
2022-08-07T07:13:43.636Z,5.88
2022-08-07T07:16:27.476Z,5.15
2022-08-07T07:18:59.889Z,5.00
2022-08-07T07:21:40.237Z,5.07
2022-08-07T07:24:20.319Z,5.05
2022-08-07T07:26:52.246Z,5.95
2022-08-07T07:29:39.626Z,5.68
2022-08-07T07:32:10.386Z,5.25
2022-08-07T07:34:39.644Z,4.20
2022-08-07T07:37:21.939Z,4.28
2022-08-07T07:39:56.230Z,5.90
2022-08-07T07:42:32.439Z,4.93
2022-08-07T07:45:02.007Z,4.03
2022-08-07T07:47:29.214Z,5.60
2022-08-07T07:50:33.336Z,4.55
2022-08-07T07:52:47.088Z,5.47
2022-08-07T07:55:14.494Z,5.15
2022-08-07T07:57:51.502Z,4.03
2022-08-07T08:00:29.053Z,6.03
2022-08-07T08:03:04.656Z,4.20
2022-08-07T08:05:50.455Z,5.30
2022-08-07T08:08:34.791Z,4.25
2022-08-07T08:11:09.234Z,4.40
2022-08-07T08:13:54.754Z,4.78
2022-08-07T08:18:54.662Z,4.75
2022-08-07T08:21:55.673Z,4.45
2022-08-07T08:24:57.308Z,3.47
2022-08-07T08:27:37.253Z,5.50
2022-08-07T08:30:07.048Z,3.28
2022-08-07T08:32:39.287Z,4.03
2022-08-07T08:35:08.795Z,3.53
2022-08-07T08:41:02.722Z,3.60
2022-08-07T08:43:55.894Z,4.15
2022-08-07T08:46:39.009Z,5.03
2022-08-07T08:49:13.215Z,4.75
2022-08-07T08:52:14.480Z,4.35
2022-08-07T08:55:21.149Z,4.65
2022-08-07T08:58:07.170Z,4.10
2022-08-07T09:00:51.847Z,5.28
2022-08-07T09:03:48.115Z,3.88
2022-08-07T09:06:25.547Z,3.72
2022-08-07T09:09:00.122Z,4.25
2022-08-07T09:11:50.862Z,3.83
2022-08-07T09:14:34.612Z,3.05
2022-08-07T09:18:04.230Z,6.43
2022-08-07T09:20:35.341Z,3.10
2022-08-07T09:24:31.770Z,3.53
2022-08-07T09:26:07.236Z,3.63
2022-08-07T09:30:06.965Z,4.38
2022-08-07T09:31:56.073Z,3.78
2022-08-07T09:34:38.136Z,3.28
2022-08-07T09:37:16.091Z,3.45
2022-08-07T09:39:54.900Z,5.00
2022-08-07T09:42:46.976Z,5.50
2022-08-07T09:47:26.194Z,3.70
2022-08-07T09:48:56.080Z,4.18
2022-08-07T09:52:33.517Z,5.07
2022-08-07T09:55:37.007Z,4.07
2022-08-07T09:58:35.859Z,3.15
2022-08-07T10:01:51.740Z,3.97
2022-08-07T10:04:47.698Z,4.00
2022-08-07T10:07:52.205Z,2.70
2022-08-07T10:11:16.994Z,2.90
2022-08-07T10:13:55.361Z,3.95
2022-08-07T10:16:24.664Z,3.85
2022-08-07T10:19:01.216Z,4.45
2022-08-07T10:22:12.313Z,3.70
2022-08-07T10:24:49.635Z,4.28
2022-08-07T10:27:47.029Z,3.20
2022-08-07T10:30:18.526Z,4.28
2022-08-07T10:33:03.913Z,3.67
2022-08-07T10:35:55.097Z,5.55
2022-08-07T10:38:42.329Z,3.50
2022-08-07T10:41:54.666Z,3.75
2022-08-07T10:44:38.398Z,5.05
2022-08-07T10:47:26.795Z,3.30
2022-08-07T10:50:49.801Z,4.32
2022-08-07T10:53:28.065Z,3.65
2022-08-07T10:56:30.913Z,4.38
2022-08-07T10:59:21.412Z,4.07
2022-08-07T11:02:11.869Z,3.85
2022-08-07T11:04:57.800Z,3.90
2022-08-07T11:07:58.605Z,6.97
2022-08-07T11:10:56.594Z,3.10
2022-08-07T11:14:42.344Z,4.13
2022-08-07T11:16:51.314Z,4.57
2022-08-07T11:19:29.927Z,3.80
2022-08-07T11:22:18.937Z,4.35
2022-08-07T11:25:06.821Z,5.38
2022-08-07T11:28:02.680Z,4.90
2022-08-07T11:30:43.652Z,5.40
2022-08-07T11:33:48.708Z,4.95
2022-08-07T11:36:33.742Z,4.85
2022-08-07T11:39:10.032Z,3.92
2022-08-07T11:42:01.356Z,3.65
2022-08-07T11:44:58.175Z,4.00
2022-08-07T11:47:59.114Z,5.18
2022-08-07T11:50:33.160Z,4.53
2022-08-07T11:53:27.874Z,6.03
2022-08-07T11:56:28.066Z,5.30
2022-08-07T12:00:08.179Z,5.95
2022-08-07T12:02:37.617Z,6.30
2022-08-07T12:05:28.322Z,5.40
2022-08-07T12:08:25.953Z,4.88
2022-08-07T12:11:21.876Z,5.45
2022-08-07T12:13:54.668Z,4.85
2022-08-07T12:16:30.291Z,4.28
2022-08-07T12:19:21.343Z,4.90
2022-08-07T12:22:38.466Z,3.45
2022-08-07T12:25:08.111Z,4.05
2022-08-07T12:28:09.478Z,3.58
2022-08-07T12:30:36.387Z,3.90
2022-08-07T12:35:58.145Z,4.55
2022-08-07T12:38:36.881Z,3.75
2022-08-07T12:41:09.862Z,4.32
2022-08-07T12:44:03.674Z,3.55
2022-08-07T12:47:01.344Z,4.07
2022-08-07T12:49:48.855Z,4.65
2022-08-07T12:52:33.935Z,3.53
2022-08-07T12:55:21.649Z,2.53
2022-08-07T13:00:50.345Z,6.35
2022-08-07T13:04:02.623Z,4.15
2022-08-07T13:07:00.880Z,4.05
2022-08-07T13:10:18.901Z,3.25
2022-08-07T13:13:13.105Z,2.83
2022-08-07T13:16:05.454Z,3.15
2022-08-07T13:18:57.274Z,3.22
2022-08-07T13:21:37.338Z,3.28
2022-08-07T13:24:29.181Z,2.72
2022-08-07T13:27:05.419Z,3.63
2022-08-07T13:30:05.653Z,2.78
2022-08-07T13:32:41.218Z,3.95
2022-08-07T13:35:12.481Z,2.90
2022-08-07T13:38:00.812Z,3.55
2022-08-07T13:40:42.178Z,2.83
2022-08-07T13:43:15.314Z,3.10
2022-08-07T13:46:12.526Z,4.00
2022-08-07T13:48:34.514Z,3.72
2022-08-07T13:51:27.675Z,3.30
2022-08-07T13:54:02.058Z,2.88
2022-08-07T13:56:36.313Z,2.88
2022-08-07T13:59:17.605Z,2.60
2022-08-07T14:02:04.691Z,2.78
2022-08-07T14:04:36.338Z,3.08
2022-08-07T14:07:09.293Z,2.72
2022-08-07T14:10:01.402Z,2.60
2022-08-07T14:12:41.766Z,3.40
2022-08-07T14:15:18.775Z,3.35
2022-08-07T14:18:24.530Z,3.40
2022-08-07T14:20:48.949Z,3.55
2022-08-07T14:23:31.559Z,2.50
2022-08-07T14:26:30.470Z,2.95
2022-08-07T14:29:10.584Z,6.60
2022-08-07T14:31:57.684Z,3.10
2022-08-07T14:34:29.749Z,2.85
2022-08-07T14:37:02.031Z,2.92
2022-08-07T14:40:18.193Z,3.63
2022-08-07T14:42:25.198Z,4.53
2022-08-07T14:44:53.931Z,3.80
2022-08-07T14:47:28.340Z,3.13
2022-08-07T14:49:59.464Z,3.05
2022-08-07T14:52:28.968Z,3.92
2022-08-07T14:54:58.509Z,3.70
2022-08-07T14:57:54.404Z,4.07
2022-08-07T15:00:13.042Z,3.38
2022-08-07T15:03:18.917Z,4.68
2022-08-07T15:14:16.897Z,3.78
2022-08-07T15:20:30.878Z,3.78
2022-08-07T15:25:36.638Z,3.92
2022-08-07T15:28:36.417Z,2.88
2022-08-07T15:31:04.588Z,4.60
2022-08-07T15:37:02.803Z,3.53
2022-08-07T15:39:18.519Z,3.92
2022-08-07T15:42:45.154Z,4.68
2022-08-07T15:44:52.143Z,3.47
2022-08-07T15:47:19.678Z,4.57
2022-08-07T15:50:05.326Z,4.32
2022-08-07T15:52:34.738Z,3.53
2022-08-07T15:55:08.963Z,3.65
2022-08-07T15:57:48.246Z,4.03
2022-08-07T16:00:32.063Z,2.65
2022-08-07T16:03:03.593Z,4.00
2022-08-07T16:05:33.409Z,3.95
2022-08-07T16:08:30.697Z,4.72
2022-08-07T16:11:17.368Z,4.03
2022-08-07T16:14:11.998Z,4.25
2022-08-07T16:17:00.239Z,3.95
2022-08-07T16:20:04.656Z,3.75
2022-08-07T16:22:54.849Z,3.83
2022-08-07T16:26:00.549Z,3.90
2022-08-07T16:30:07.536Z,3.42
2022-08-07T16:31:51.238Z,4.55
2022-08-07T16:34:48.094Z,4.38
2022-08-07T16:38:02.787Z,4.63
2022-08-07T16:40:37.488Z,4.68
2022-08-07T16:44:02.271Z,4.78
2022-08-07T16:47:06.815Z,3.08
2022-08-07T16:50:28.442Z,4.53
2022-08-07T16:53:48.347Z,4.57
2022-08-07T16:55:53.469Z,4.10
2022-08-07T16:58:23.410Z,5.53
2022-08-07T17:01:27.189Z,4.57
2022-08-07T17:04:33.377Z,2.92
2022-08-07T17:07:10.168Z,4.70
2022-08-07T17:10:07.122Z,3.60
2022-08-07T17:12:53.100Z,6.90
2022-08-07T17:15:44.260Z,5.20
2022-08-07T17:18:26.479Z,5.32
2022-08-07T17:20:54.895Z,5.07
2022-08-07T17:23:43.257Z,4.35
2022-08-07T17:26:24.177Z,3.80
2022-08-07T17:30:12.672Z,3.72
2022-08-07T17:32:31.201Z,3.63
2022-08-07T17:35:51.817Z,3.75
2022-08-07T17:38:33.178Z,5.07
2022-08-07T17:42:00.750Z,5.30
2022-08-07T17:44:34.060Z,4.50
2022-08-07T17:47:17.190Z,5.85
2022-08-07T17:50:01.784Z,4.70
2022-08-07T17:52:41.164Z,5.65
2022-08-07T17:55:13.210Z,5.05
2022-08-07T17:58:07.469Z,5.25
2022-08-07T18:00:49.193Z,4.30
2022-08-07T18:03:25.604Z,5.35
2022-08-07T18:06:01.515Z,4.43
2022-08-07T18:08:34.588Z,5.72
2022-08-07T18:12:17.623Z,5.57
2022-08-07T18:14:18.731Z,5.80
2022-08-07T18:17:13.562Z,5.75
2022-08-07T18:21:02.299Z,6.68
2022-08-07T18:22:38.740Z,12.65
2022-08-07T18:25:23.977Z,4.57
2022-08-07T18:28:36.109Z,4.38
2022-08-07T18:33:55.057Z,5.20
2022-08-07T18:36:53.874Z,4.95
2022-08-07T18:40:42.973Z,5.22
2022-08-07T18:43:36.899Z,4.28
2022-08-07T18:46:24.703Z,4.03
2022-08-07T18:50:30.132Z,5.85
2022-08-07T18:52:54.325Z,4.63
2022-08-07T18:55:57.265Z,7.55
2022-08-07T18:58:42.400Z,4.45
2022-08-07T19:02:18.263Z,5.80
2022-08-07T19:04:37.935Z,4.63
2022-08-07T19:07:34.190Z,7.68
2022-08-07T19:10:12.103Z,5.68
2022-08-07T19:12:57.763Z,5.63
2022-08-07T19:16:04.274Z,6.47
2022-08-07T19:18:34.595Z,7.05
2022-08-07T19:21:51.188Z,5.57
2022-08-07T19:24:36.207Z,5.65
2022-08-07T19:29:02.782Z,6.30
2022-08-07T19:31:05.262Z,4.55
2022-08-07T19:32:46.146Z,5.88
2022-08-07T19:35:19.666Z,6.80
2022-08-07T19:37:57.751Z,5.00
2022-08-07T19:43:01.096Z,6.00
2022-08-07T19:46:05.540Z,5.70
2022-08-07T19:54:34.120Z,5.95
2022-08-07T19:57:52.348Z,5.20
2022-08-07T19:58:58.258Z,6.07
2022-08-07T20:01:52.943Z,7.25
2022-08-07T20:04:31.914Z,6.20
2022-08-07T20:07:09.216Z,7.80
2022-08-07T20:10:35.178Z,8.73
2022-08-07T20:12:34.908Z,6.85
2022-08-07T20:15:04.083Z,5.93
2022-08-07T20:17:38.702Z,6.20
2022-08-07T20:20:07.351Z,7.10
2022-08-07T20:22:36.007Z,4.78
2022-08-07T20:25:07.092Z,6.90
2022-08-07T20:27:57.955Z,6.03
2022-08-07T20:30:31.117Z,6.72
2022-08-07T20:33:00.466Z,7.95
2022-08-07T20:35:51.804Z,5.43
2022-08-07T20:38:21.529Z,6.38
2022-08-07T20:40:56.469Z,5.40
2022-08-07T20:43:27.931Z,7.60
2022-08-07T20:46:29.107Z,5.70
2022-08-07T20:49:53.958Z,6.25
2022-08-07T20:51:40.286Z,8.43
2022-08-07T20:54:09.481Z,7.03
2022-08-07T20:56:46.100Z,6.90
2022-08-07T21:00:04.499Z,4.72
2022-08-07T21:02:27.602Z,7.30
2022-08-07T21:04:54.940Z,6.82
2022-08-07T21:07:25.041Z,7.53
2022-08-07T21:09:59.371Z,8.20
2022-08-07T21:12:31.057Z,5.13
2022-08-07T21:14:59.705Z,6.80
2022-08-07T21:18:02.747Z,6.68
2022-08-07T21:20:30.362Z,7.03
2022-08-07T21:23:08.042Z,9.38
2022-08-07T21:26:09.448Z,7.63
2022-08-07T21:28:52.200Z,5.65
2022-08-07T21:32:10.857Z,5.30
2022-08-07T21:34:48.702Z,5.53
2022-08-07T21:37:24.340Z,5.68
2022-08-07T21:39:57.994Z,6.18
2022-08-07T21:42:49.197Z,7.47
2022-08-07T21:46:04.750Z,5.60
2022-08-07T21:48:27.883Z,7.72
2022-08-07T21:51:02.677Z,5.72
2022-08-07T21:53:46.441Z,8.77
2022-08-07T21:56:42.420Z,7.15
2022-08-07T22:00:05.063Z,8.35
2022-08-07T22:02:44.021Z,8.30
2022-08-07T22:05:43.979Z,6.22
2022-08-07T22:08:04.275Z,6.95
2022-08-07T22:10:33.819Z,8.45
2022-08-07T22:13:09.136Z,6.38
2022-08-07T22:16:41.169Z,6.45
2022-08-07T22:18:37.146Z,7.43
2022-08-07T22:22:01.822Z,7.10
2022-08-07T22:24:19.792Z,7.38
2022-08-07T22:26:50.465Z,8.27
2022-08-07T22:29:49.533Z,5.35
2022-08-07T22:32:42.337Z,6.30
2022-08-07T22:35:11.031Z,6.50
2022-08-07T22:38:03.718Z,6.65
2022-08-07T22:40:51.626Z,8.25
2022-08-07T22:43:25.073Z,7.15
2022-08-07T22:47:03.780Z,7.28
2022-08-07T22:49:59.639Z,6.95
2022-08-07T22:52:37.665Z,5.88
2022-08-07T22:55:17.789Z,6.57
2022-08-07T22:58:04.940Z,9.32
2022-08-07T23:00:38.677Z,7.00
2022-08-07T23:03:57.359Z,8.25
2022-08-07T23:06:51.538Z,7.22
2022-08-07T23:10:37.967Z,6.07
2022-08-07T23:13:05.063Z,7.18
2022-08-07T23:16:06.757Z,6.35
2022-08-07T23:19:38.840Z,5.15
2022-08-07T23:22:28.610Z,6.47
2022-08-07T23:25:21.113Z,7.00
2022-08-07T23:28:21.130Z,5.97
2022-08-07T23:31:06.462Z,6.82
2022-08-07T23:34:38.259Z,8.45
2022-08-07T23:37:37.252Z,5.00
2022-08-07T23:40:49.380Z,5.75
2022-08-07T23:43:23.994Z,5.45
2022-08-07T23:46:23.512Z,5.38
2022-08-07T23:49:05.167Z,7.78
2022-08-07T23:53:01.513Z,5.47
2022-08-07T23:54:52.073Z,5.93
2022-08-07T23:57:34.821Z,6.25
